Fort Franklin, Canada
Current Conditions -  °F | °C
As of 6:00 PM on Sunday 21 Dec 2014 (Local Time) from CYVQ Reporting Station
Light Snow Light Snow  
Wind Chill: -11°   Ceiling: 1500
Heat Index:   Visibility: 4mi
Dew Point: -2°   Wind: 7mph
Humidity: 85%   Direction: 270°W
Pressure: 29.77"   Gusts: NA
Location:  65.19°N, 123.42°W
Report Text: CYVQ 220100Z 27006KT 4SM -SN OVC015 M17/M19 A2977 RMK SC8 SLP089
Loading
Personal Weather Stations






























Interactive Weather Map New forecast layout! Learn more

10-Day Weather Forecast

Advertisements
Track Severe Weather on mobile